<?xml version="1.0" encoding="UTF-8" standalone="no" ?>
<gpx xmlns="http://www.topografix.com/GPX/1/1" xmlns:xsi="http://www.w3.org/2001/XMLSchema-instance" xsi:schemaLocation="http://www.topografix.com/GPX/1/1 http://www.topografix.com/GPX/1/1/gpx.xsd" version="1.1" creator="VisuGPX - https://www.visugpx.com">
  <metadata>
    <name>Rando LN</name>
  </metadata>
  <trk>
    <name><![CDATA[Pinsac]]></name>
    <extensions>
      <line xmlns="http://www.topografix.com/GPX/gpx_style/0/2">
        <color>00ff11</color>
        <width>4</width>
      </line>
    </extensions>
    <trkseg>
      <trkpt lat="44.88418" lon="1.35337">
        <ele>170.186</ele>
        <time>2015-08-04T12:47:15Z</time>
      </trkpt>
      <trkpt lat="44.88418" lon="1.35337">
        <ele>170.186</ele>
        <time>2015-08-04T12:47:15Z</time>
      </trkpt>
      <trkpt lat="44.88418" lon="1.35337">
        <ele>170.186</ele>
        <time>2015-08-04T12:47:15Z</time>
      </trkpt>
      <trkpt lat="44.88418" lon="1.35337">
        <ele>170.186</ele>
        <time>2015-08-04T12:47:15Z</time>
      </trkpt>
      <trkpt lat="44.88418" lon="1.35337">
        <ele>170.186</ele>
        <time>2015-08-04T12:47:15Z</time>
      </trkpt>
      <trkpt lat="44.88418" lon="1.35337">
        <ele>170.186</ele>
        <time>2015-08-04T12:47:15Z</time>
      </trkpt>
      <trkpt lat="44.88418" lon="1.35337">
        <ele>170.186</ele>
        <time>2015-08-04T12:47:15Z</time>
      </trkpt>
      <trkpt lat="44.88717" lon="1.35604">
        <ele>155.26</ele>
        <time>2015-08-04T12:47:35Z</time>
      </trkpt>
      <trkpt lat="44.88798" lon="1.35585">
        <ele>165.326</ele>
        <time>2015-08-04T12:47:55Z</time>
      </trkpt>
      <trkpt lat="44.88807" lon="1.35657">
        <ele>171.308</ele>
        <time>2015-08-04T12:48:15Z</time>
      </trkpt>
      <trkpt lat="44.88827" lon="1.35711">
        <ele>173.414</ele>
        <time>2015-08-04T12:48:35Z</time>
      </trkpt>
      <trkpt lat="44.88851" lon="1.35844">
        <ele>180.289</ele>
        <time>2015-08-04T12:48:55Z</time>
      </trkpt>
      <trkpt lat="44.88879" lon="1.35874">
        <ele>185.479</ele>
        <time>2015-08-04T12:49:15Z</time>
      </trkpt>
      <trkpt lat="44.88897" lon="1.3592">
        <ele>190.041</ele>
        <time>2015-08-04T12:49:35Z</time>
      </trkpt>
      <trkpt lat="44.88954" lon="1.35942">
        <ele>196.113</ele>
        <time>2015-08-04T12:49:55Z</time>
      </trkpt>
      <trkpt lat="44.88998" lon="1.35967">
        <ele>200.544</ele>
        <time>2015-08-04T12:50:15Z</time>
      </trkpt>
      <trkpt lat="44.89029" lon="1.36001">
        <ele>205.15</ele>
        <time>2015-08-04T12:50:35Z</time>
      </trkpt>
      <trkpt lat="44.88963" lon="1.36067">
        <ele>202.022</ele>
        <time>2015-08-04T12:50:55Z</time>
      </trkpt>
      <trkpt lat="44.88932" lon="1.36133">
        <ele>199.332</ele>
        <time>2015-08-04T12:51:15Z</time>
      </trkpt>
      <trkpt lat="44.8889" lon="1.36183">
        <ele>195.792</ele>
        <time>2015-08-04T12:51:35Z</time>
      </trkpt>
      <trkpt lat="44.88862" lon="1.36254">
        <ele>200.211</ele>
        <time>2015-08-04T12:51:55Z</time>
      </trkpt>
      <trkpt lat="44.8884" lon="1.3633">
        <ele>201.308</ele>
        <time>2015-08-04T12:52:15Z</time>
      </trkpt>
      <trkpt lat="44.88777" lon="1.36474">
        <ele>201.229</ele>
        <time>2015-08-04T12:52:35Z</time>
      </trkpt>
      <trkpt lat="44.88768" lon="1.36466">
        <ele>201.924</ele>
        <time>2015-08-04T12:52:55Z</time>
      </trkpt>
      <trkpt lat="44.88763" lon="1.3656">
        <ele>203.834</ele>
        <time>2015-08-04T12:53:15Z</time>
      </trkpt>
      <trkpt lat="44.88765" lon="1.3664">
        <ele>210.666</ele>
        <time>2015-08-04T12:53:35Z</time>
      </trkpt>
      <trkpt lat="44.88783" lon="1.36778">
        <ele>211.748</ele>
        <time>2015-08-04T12:53:55Z</time>
      </trkpt>
      <trkpt lat="44.88783" lon="1.36832">
        <ele>219.559</ele>
        <time>2015-08-04T12:54:15Z</time>
      </trkpt>
      <trkpt lat="44.88827" lon="1.3694">
        <ele>212.015</ele>
        <time>2015-08-04T12:54:35Z</time>
      </trkpt>
      <trkpt lat="44.8885" lon="1.36974">
        <ele>207.937</ele>
        <time>2015-08-04T12:54:55Z</time>
      </trkpt>
      <trkpt lat="44.88914" lon="1.37031">
        <ele>199.869</ele>
        <time>2015-08-04T12:55:15Z</time>
      </trkpt>
      <trkpt lat="44.88956" lon="1.37089">
        <ele>191.604</ele>
        <time>2015-08-04T12:55:35Z</time>
      </trkpt>
      <trkpt lat="44.88988" lon="1.37158">
        <ele>182.024</ele>
        <time>2015-08-04T12:55:55Z</time>
      </trkpt>
      <trkpt lat="44.89009" lon="1.3725">
        <ele>174.408</ele>
        <time>2015-08-04T12:56:15Z</time>
      </trkpt>
      <trkpt lat="44.89041" lon="1.37302">
        <ele>163.162</ele>
        <time>2015-08-04T12:56:35Z</time>
      </trkpt>
      <trkpt lat="44.89068" lon="1.37301">
        <ele>161.577</ele>
        <time>2015-08-04T12:56:55Z</time>
      </trkpt>
      <trkpt lat="44.89091" lon="1.37322">
        <ele>160.577</ele>
        <time>2015-08-04T12:57:15Z</time>
      </trkpt>
      <trkpt lat="44.89106" lon="1.37373">
        <ele>155.949</ele>
        <time>2015-08-04T12:57:35Z</time>
      </trkpt>
      <trkpt lat="44.89129" lon="1.37418">
        <ele>152.241</ele>
        <time>2015-08-04T12:57:55Z</time>
      </trkpt>
      <trkpt lat="44.89158" lon="1.37452">
        <ele>145.932</ele>
        <time>2015-08-04T12:58:15Z</time>
      </trkpt>
      <trkpt lat="44.89203" lon="1.37465">
        <ele>146.048</ele>
        <time>2015-08-04T12:58:35Z</time>
      </trkpt>
      <trkpt lat="44.8922" lon="1.37521">
        <ele>141.96</ele>
        <time>2015-08-04T12:58:55Z</time>
      </trkpt>
      <trkpt lat="44.89238" lon="1.37554">
        <ele>144.084</ele>
        <time>2015-08-04T12:59:15Z</time>
      </trkpt>
      <trkpt lat="44.89258" lon="1.37581">
        <ele>145.607</ele>
        <time>2015-08-04T12:59:35Z</time>
      </trkpt>
      <trkpt lat="44.89279" lon="1.37591">
        <ele>144.217</ele>
        <time>2015-08-04T12:59:55Z</time>
      </trkpt>
      <trkpt lat="44.89276" lon="1.37652">
        <ele>140.808</ele>
        <time>2015-08-04T13:00:15Z</time>
      </trkpt>
      <trkpt lat="44.89262" lon="1.37786">
        <ele>124.284</ele>
        <time>2015-08-04T13:00:35Z</time>
      </trkpt>
      <trkpt lat="44.892" lon="1.37965">
        <ele>104.289</ele>
        <time>2015-08-04T13:00:55Z</time>
      </trkpt>
      <trkpt lat="44.892" lon="1.37996">
        <ele>100.329</ele>
        <time>2015-08-04T13:01:15Z</time>
      </trkpt>
      <trkpt lat="44.89241" lon="1.38047">
        <ele>91.351</ele>
        <time>2015-08-04T13:01:35Z</time>
      </trkpt>
      <trkpt lat="44.89249" lon="1.38076">
        <ele>91.773</ele>
        <time>2015-08-04T13:01:55Z</time>
      </trkpt>
      <trkpt lat="44.89286" lon="1.38114">
        <ele>97.144</ele>
        <time>2015-08-04T13:02:15Z</time>
      </trkpt>
      <trkpt lat="44.89307" lon="1.38168">
        <ele>102.15</ele>
        <time>2015-08-04T13:02:35Z</time>
      </trkpt>
      <trkpt lat="44.89427" lon="1.3829">
        <ele>105.962</ele>
        <time>2015-08-04T13:02:55Z</time>
      </trkpt>
      <trkpt lat="44.89459" lon="1.38347">
        <ele>105.275</ele>
        <time>2015-08-04T13:03:15Z</time>
      </trkpt>
      <trkpt lat="44.89513" lon="1.38408">
        <ele>108.728</ele>
        <time>2015-08-04T13:03:35Z</time>
      </trkpt>
      <trkpt lat="44.8956" lon="1.38476">
        <ele>108.12</ele>
        <time>2015-08-04T13:03:55Z</time>
      </trkpt>
      <trkpt lat="44.89632" lon="1.38522">
        <ele>113.308</ele>
        <time>2015-08-04T13:04:15Z</time>
      </trkpt>
      <trkpt lat="44.8971" lon="1.38552">
        <ele>117.933</ele>
        <time>2015-08-04T13:04:35Z</time>
      </trkpt>
      <trkpt lat="44.89813" lon="1.38636">
        <ele>112.298</ele>
        <time>2015-08-04T13:04:55Z</time>
      </trkpt>
      <trkpt lat="44.89898" lon="1.38717">
        <ele>107.888</ele>
        <time>2015-08-04T13:05:15Z</time>
      </trkpt>
      <trkpt lat="44.89994" lon="1.38768">
        <ele>112.01</ele>
        <time>2015-08-04T13:05:35Z</time>
      </trkpt>
      <trkpt lat="44.9011" lon="1.38738">
        <ele>121.332</ele>
        <time>2015-08-04T13:05:55Z</time>
      </trkpt>
      <trkpt lat="44.9015" lon="1.38757">
        <ele>121.613</ele>
        <time>2015-08-04T13:06:15Z</time>
      </trkpt>
      <trkpt lat="44.90239" lon="1.38858">
        <ele>122.029</ele>
        <time>2015-08-04T13:06:35Z</time>
      </trkpt>
      <trkpt lat="44.902" lon="1.38975">
        <ele>130.311</ele>
        <time>2015-08-04T13:06:55Z</time>
      </trkpt>
      <trkpt lat="44.90187" lon="1.39034">
        <ele>135.887</ele>
        <time>2015-08-04T13:07:15Z</time>
      </trkpt>
      <trkpt lat="44.9016" lon="1.39114">
        <ele>142.242</ele>
        <time>2015-08-04T13:07:35Z</time>
      </trkpt>
      <trkpt lat="44.90163" lon="1.39177">
        <ele>145.226</ele>
        <time>2015-08-04T13:07:55Z</time>
      </trkpt>
      <trkpt lat="44.90132" lon="1.39258">
        <ele>149.208</ele>
        <time>2015-08-04T13:08:15Z</time>
      </trkpt>
      <trkpt lat="44.9009" lon="1.39395">
        <ele>157.764</ele>
        <time>2015-08-04T13:08:35Z</time>
      </trkpt>
      <trkpt lat="44.90105" lon="1.39554">
        <ele>162.899</ele>
        <time>2015-08-04T13:08:55Z</time>
      </trkpt>
      <trkpt lat="44.90148" lon="1.39664">
        <ele>167.789</ele>
        <time>2015-08-04T13:09:15Z</time>
      </trkpt>
      <trkpt lat="44.90229" lon="1.39805">
        <ele>181.531</ele>
        <time>2015-08-04T13:09:35Z</time>
      </trkpt>
      <trkpt lat="44.90248" lon="1.39887">
        <ele>185.173</ele>
        <time>2015-08-04T13:09:55Z</time>
      </trkpt>
      <trkpt lat="44.90263" lon="1.40044">
        <ele>192.184</ele>
        <time>2015-08-04T13:10:15Z</time>
      </trkpt>
      <trkpt lat="44.90281" lon="1.40103">
        <ele>198.66</ele>
        <time>2015-08-04T13:10:35Z</time>
      </trkpt>
      <trkpt lat="44.90343" lon="1.40175">
        <ele>211.482</ele>
        <time>2015-08-04T13:10:55Z</time>
      </trkpt>
      <trkpt lat="44.90358" lon="1.40227">
        <ele>216.045</ele>
        <time>2015-08-04T13:11:15Z</time>
      </trkpt>
      <trkpt lat="44.90355" lon="1.40319">
        <ele>227.247</ele>
        <time>2015-08-04T13:11:35Z</time>
      </trkpt>
      <trkpt lat="44.90377" lon="1.40436">
        <ele>237.711</ele>
        <time>2015-08-04T13:11:55Z</time>
      </trkpt>
      <trkpt lat="44.90391" lon="1.40458">
        <ele>242.008</ele>
        <time>2015-08-04T13:12:15Z</time>
      </trkpt>
      <trkpt lat="44.90395" lon="1.40494">
        <ele>245.11</ele>
        <time>2015-08-04T13:12:35Z</time>
      </trkpt>
      <trkpt lat="44.90414" lon="1.40502">
        <ele>249.535</ele>
        <time>2015-08-04T13:12:55Z</time>
      </trkpt>
      <trkpt lat="44.90435" lon="1.40496">
        <ele>252.115</ele>
        <time>2015-08-04T13:13:15Z</time>
      </trkpt>
      <trkpt lat="44.9047" lon="1.40502">
        <ele>256.697</ele>
        <time>2015-08-04T13:13:35Z</time>
      </trkpt>
      <trkpt lat="44.90479" lon="1.40513">
        <ele>258.529</ele>
        <time>2015-08-04T13:13:55Z</time>
      </trkpt>
      <trkpt lat="44.90482" lon="1.40537">
        <ele>259.92</ele>
        <time>2015-08-04T13:14:15Z</time>
      </trkpt>
      <trkpt lat="44.90427" lon="1.40572">
        <ele>258.836</ele>
        <time>2015-08-04T13:14:35Z</time>
      </trkpt>
      <trkpt lat="44.90414" lon="1.40592">
        <ele>261.578</ele>
        <time>2015-08-04T13:14:55Z</time>
      </trkpt>
      <trkpt lat="44.90394" lon="1.40635">
        <ele>268.778</ele>
        <time>2015-08-04T13:15:15Z</time>
      </trkpt>
      <trkpt lat="44.90379" lon="1.40657">
        <ele>270.333</ele>
        <time>2015-08-04T13:15:35Z</time>
      </trkpt>
      <trkpt lat="44.90372" lon="1.40683">
        <ele>273.226</ele>
        <time>2015-08-04T13:15:55Z</time>
      </trkpt>
      <trkpt lat="44.9034" lon="1.40669">
        <ele>273.508</ele>
        <time>2015-08-04T13:16:15Z</time>
      </trkpt>
      <trkpt lat="44.90333" lon="1.40643">
        <ele>269.933</ele>
        <time>2015-08-04T13:16:35Z</time>
      </trkpt>
      <trkpt lat="44.90275" lon="1.40593">
        <ele>274.928</ele>
        <time>2015-08-04T13:16:55Z</time>
      </trkpt>
      <trkpt lat="44.90213" lon="1.40565">
        <ele>287.478</ele>
        <time>2015-08-04T13:17:15Z</time>
      </trkpt>
      <trkpt lat="44.90155" lon="1.40573">
        <ele>289.38</ele>
        <time>2015-08-04T13:17:35Z</time>
      </trkpt>
      <trkpt lat="44.90093" lon="1.40588">
        <ele>290.782</ele>
        <time>2015-08-04T13:17:55Z</time>
      </trkpt>
      <trkpt lat="44.90032" lon="1.4053">
        <ele>288.253</ele>
        <time>2015-08-04T13:18:15Z</time>
      </trkpt>
      <trkpt lat="44.89994" lon="1.40585">
        <ele>290.779</ele>
        <time>2015-08-04T13:18:35Z</time>
      </trkpt>
      <trkpt lat="44.89973" lon="1.40597">
        <ele>290.011</ele>
        <time>2015-08-04T13:18:55Z</time>
      </trkpt>
      <trkpt lat="44.89961" lon="1.40624">
        <ele>290.982</ele>
        <time>2015-08-04T13:19:15Z</time>
      </trkpt>
      <trkpt lat="44.89961" lon="1.40624">
        <ele>290.982</ele>
        <time>2015-08-04T13:19:15Z</time>
      </trkpt>
      <trkpt lat="44.90022" lon="1.40663">
        <ele>295.043</ele>
        <time>2015-08-04T13:19:35Z</time>
      </trkpt>
      <trkpt lat="44.90098" lon="1.40728">
        <ele>303.817</ele>
        <time>2015-08-04T13:19:55Z</time>
      </trkpt>
      <trkpt lat="44.90141" lon="1.40795">
        <ele>308.308</ele>
        <time>2015-08-04T13:20:15Z</time>
      </trkpt>
      <trkpt lat="44.90285" lon="1.4097">
        <ele>313.624</ele>
        <time>2015-08-04T13:20:35Z</time>
      </trkpt>
      <trkpt lat="44.90395" lon="1.41029">
        <ele>310.719</ele>
        <time>2015-08-04T13:20:55Z</time>
      </trkpt>
      <trkpt lat="44.90406" lon="1.41106">
        <ele>304.949</ele>
        <time>2015-08-04T13:21:15Z</time>
      </trkpt>
      <trkpt lat="44.90451" lon="1.41119">
        <ele>303.031</ele>
        <time>2015-08-04T13:21:35Z</time>
      </trkpt>
      <trkpt lat="44.90526" lon="1.4109">
        <ele>297.853</ele>
        <time>2015-08-04T13:21:55Z</time>
      </trkpt>
      <trkpt lat="44.90653" lon="1.41076">
        <ele>296.114</ele>
        <time>2015-08-04T13:22:15Z</time>
      </trkpt>
      <trkpt lat="44.9073" lon="1.41086">
        <ele>294.79</ele>
        <time>2015-08-04T13:22:35Z</time>
      </trkpt>
      <trkpt lat="44.90819" lon="1.41066">
        <ele>295.232</ele>
        <time>2015-08-04T13:22:55Z</time>
      </trkpt>
      <trkpt lat="44.90894" lon="1.41076">
        <ele>296.861</ele>
        <time>2015-08-04T13:23:15Z</time>
      </trkpt>
      <trkpt lat="44.90895" lon="1.41134">
        <ele>295.421</ele>
        <time>2015-08-04T13:23:35Z</time>
      </trkpt>
      <trkpt lat="44.9091" lon="1.4117">
        <ele>291.313</ele>
        <time>2015-08-04T13:23:55Z</time>
      </trkpt>
      <trkpt lat="44.90896" lon="1.41223">
        <ele>283.908</ele>
        <time>2015-08-04T13:24:15Z</time>
      </trkpt>
      <trkpt lat="44.90884" lon="1.41305">
        <ele>273.092</ele>
        <time>2015-08-04T13:24:35Z</time>
      </trkpt>
      <trkpt lat="44.9088" lon="1.4137">
        <ele>263.367</ele>
        <time>2015-08-04T13:24:55Z</time>
      </trkpt>
      <trkpt lat="44.90906" lon="1.41427">
        <ele>254.457</ele>
        <time>2015-08-04T13:25:15Z</time>
      </trkpt>
      <trkpt lat="44.9091" lon="1.41479">
        <ele>244.579</ele>
        <time>2015-08-04T13:25:35Z</time>
      </trkpt>
      <trkpt lat="44.90942" lon="1.41558">
        <ele>233.541</ele>
        <time>2015-08-04T13:25:55Z</time>
      </trkpt>
      <trkpt lat="44.90938" lon="1.41581">
        <ele>230.212</ele>
        <time>2015-08-04T13:26:15Z</time>
      </trkpt>
      <trkpt lat="44.90945" lon="1.41623">
        <ele>227.318</ele>
        <time>2015-08-04T13:26:35Z</time>
      </trkpt>
      <trkpt lat="44.90942" lon="1.41667">
        <ele>225.95</ele>
        <time>2015-08-04T13:26:55Z</time>
      </trkpt>
      <trkpt lat="44.90804" lon="1.41713">
        <ele>222.175</ele>
        <time>2015-08-04T13:27:15Z</time>
      </trkpt>
      <trkpt lat="44.90775" lon="1.41738">
        <ele>216.728</ele>
        <time>2015-08-04T13:27:35Z</time>
      </trkpt>
      <trkpt lat="44.90749" lon="1.41781">
        <ele>213.12</ele>
        <time>2015-08-04T13:27:55Z</time>
      </trkpt>
      <trkpt lat="44.9074" lon="1.41803">
        <ele>212.708</ele>
        <time>2015-08-04T13:28:15Z</time>
      </trkpt>
      <trkpt lat="44.90735" lon="1.41841">
        <ele>209.263</ele>
        <time>2015-08-04T13:28:35Z</time>
      </trkpt>
      <trkpt lat="44.9074" lon="1.41901">
        <ele>209.018</ele>
        <time>2015-08-04T13:28:55Z</time>
      </trkpt>
      <trkpt lat="44.90693" lon="1.41974">
        <ele>207.168</ele>
        <time>2015-08-04T13:29:15Z</time>
      </trkpt>
      <trkpt lat="44.9064" lon="1.42085">
        <ele>201.08</ele>
        <time>2015-08-04T13:29:35Z</time>
      </trkpt>
      <trkpt lat="44.9063" lon="1.42124">
        <ele>198.732</ele>
        <time>2015-08-04T13:29:55Z</time>
      </trkpt>
      <trkpt lat="44.90627" lon="1.42272">
        <ele>195.113</ele>
        <time>2015-08-04T13:30:15Z</time>
      </trkpt>
      <trkpt lat="44.90619" lon="1.42397">
        <ele>190.569</ele>
        <time>2015-08-04T13:30:35Z</time>
      </trkpt>
      <trkpt lat="44.90622" lon="1.42511">
        <ele>184.461</ele>
        <time>2015-08-04T13:30:55Z</time>
      </trkpt>
      <trkpt lat="44.90642" lon="1.42644">
        <ele>177.862</ele>
        <time>2015-08-04T13:31:15Z</time>
      </trkpt>
      <trkpt lat="44.90649" lon="1.42754">
        <ele>179.383</ele>
        <time>2015-08-04T13:31:35Z</time>
      </trkpt>
      <trkpt lat="44.90678" lon="1.42815">
        <ele>175.111</ele>
        <time>2015-08-04T13:31:55Z</time>
      </trkpt>
      <trkpt lat="44.90708" lon="1.42871">
        <ele>168.508</ele>
        <time>2015-08-04T13:32:15Z</time>
      </trkpt>
      <trkpt lat="44.90711" lon="1.42903">
        <ele>167.362</ele>
        <time>2015-08-04T13:32:35Z</time>
      </trkpt>
      <trkpt lat="44.90699" lon="1.42958">
        <ele>167.547</ele>
        <time>2015-08-04T13:32:55Z</time>
      </trkpt>
      <trkpt lat="44.90665" lon="1.43003">
        <ele>168.337</ele>
        <time>2015-08-04T13:33:15Z</time>
      </trkpt>
      <trkpt lat="44.90631" lon="1.43054">
        <ele>166.169</ele>
        <time>2015-08-04T13:33:35Z</time>
      </trkpt>
      <trkpt lat="44.90609" lon="1.43151">
        <ele>162.911</ele>
        <time>2015-08-04T13:33:55Z</time>
      </trkpt>
      <trkpt lat="44.90559" lon="1.43257">
        <ele>160.922</ele>
        <time>2015-08-04T13:34:15Z</time>
      </trkpt>
      <trkpt lat="44.90554" lon="1.43315">
        <ele>160.658</ele>
        <time>2015-08-04T13:34:35Z</time>
      </trkpt>
      <trkpt lat="44.90559" lon="1.43356">
        <ele>161.85</ele>
        <time>2015-08-04T13:34:55Z</time>
      </trkpt>
      <trkpt lat="44.90633" lon="1.43492">
        <ele>152.284</ele>
        <time>2015-08-04T13:35:15Z</time>
      </trkpt>
      <trkpt lat="44.90646" lon="1.43525">
        <ele>150.507</ele>
        <time>2015-08-04T13:35:35Z</time>
      </trkpt>
      <trkpt lat="44.90676" lon="1.43686">
        <ele>147.417</ele>
        <time>2020-03-06T18:02:17Z</time>
      </trkpt>
      <trkpt lat="44.90674" lon="1.43778">
        <ele>146.708</ele>
        <time>2020-03-06T18:02:37Z</time>
      </trkpt>
      <trkpt lat="44.90622" lon="1.43918">
        <ele>139.074</ele>
        <time>2020-03-06T18:02:57Z</time>
      </trkpt>
      <trkpt lat="44.90623" lon="1.43944">
        <ele>142.699</ele>
        <time>2020-03-06T18:03:17Z</time>
      </trkpt>
      <trkpt lat="44.90589" lon="1.44014">
        <ele>140.669</ele>
        <time>2015-08-04T13:36:55Z</time>
      </trkpt>
      <trkpt lat="44.90573" lon="1.44038">
        <ele>140.911</ele>
        <time>2015-08-04T13:37:15Z</time>
      </trkpt>
      <trkpt lat="44.90454" lon="1.44065">
        <ele>133.273</ele>
        <time>2015-08-04T13:37:35Z</time>
      </trkpt>
      <trkpt lat="44.90365" lon="1.44113">
        <ele>130.244</ele>
        <time>2015-08-04T13:37:55Z</time>
      </trkpt>
      <trkpt lat="44.90305" lon="1.44182">
        <ele>127.69</ele>
        <time>2015-08-04T13:38:15Z</time>
      </trkpt>
      <trkpt lat="44.90282" lon="1.44219">
        <ele>127.722</ele>
        <time>2015-08-04T13:38:35Z</time>
      </trkpt>
      <trkpt lat="44.9021" lon="1.44269">
        <ele>122.522</ele>
        <time>2015-08-04T13:38:55Z</time>
      </trkpt>
      <trkpt lat="44.90172" lon="1.44338">
        <ele>124.562</ele>
        <time>2015-08-04T13:39:15Z</time>
      </trkpt>
      <trkpt lat="44.90163" lon="1.44396">
        <ele>123.308</ele>
        <time>2015-08-04T13:39:35Z</time>
      </trkpt>
      <trkpt lat="44.90141" lon="1.44469">
        <ele>117.608</ele>
        <time>2015-08-04T13:39:55Z</time>
      </trkpt>
      <trkpt lat="44.90136" lon="1.44528">
        <ele>115.998</ele>
        <time>2015-08-04T13:40:15Z</time>
      </trkpt>
      <trkpt lat="44.9017" lon="1.44668">
        <ele>112.653</ele>
        <time>2015-08-04T13:40:35Z</time>
      </trkpt>
      <trkpt lat="44.90163" lon="1.4472">
        <ele>108.423</ele>
        <time>2015-08-04T13:40:55Z</time>
      </trkpt>
      <trkpt lat="44.90144" lon="1.44774">
        <ele>105.535</ele>
        <time>2015-08-04T13:41:15Z</time>
      </trkpt>
      <trkpt lat="44.90122" lon="1.44799">
        <ele>104.347</ele>
        <time>2015-08-04T13:41:35Z</time>
      </trkpt>
      <trkpt lat="44.90106" lon="1.44828">
        <ele>103.488</ele>
        <time>2015-08-04T13:41:55Z</time>
      </trkpt>
      <trkpt lat="44.9011" lon="1.44874">
        <ele>107.114</ele>
        <time>2020-11-25T14:14:40Z</time>
      </trkpt>
      <trkpt lat="44.90188" lon="1.45003">
        <ele>103.016</ele>
        <time>2020-11-25T14:15:00Z</time>
      </trkpt>
      <trkpt lat="44.90258" lon="1.45167">
        <ele>102.711</ele>
        <time>2020-11-25T14:15:20Z</time>
      </trkpt>
      <trkpt lat="44.90295" lon="1.45226">
        <ele>107.621</ele>
        <time>2020-11-25T14:15:40Z</time>
      </trkpt>
      <trkpt lat="44.90347" lon="1.45383">
        <ele>105.803</ele>
        <time>2020-11-25T14:16:00Z</time>
      </trkpt>
      <trkpt lat="44.90355" lon="1.45507">
        <ele>100.208</ele>
        <time>2020-11-25T14:16:20Z</time>
      </trkpt>
      <trkpt lat="44.90335" lon="1.45564">
        <ele>97.567</ele>
        <time>2020-11-25T14:16:40Z</time>
      </trkpt>
      <trkpt lat="44.90297" lon="1.45554">
        <ele>92.742</ele>
        <time>2020-11-25T14:17:00Z</time>
      </trkpt>
      <trkpt lat="44.90273" lon="1.45689">
        <ele>94.862</ele>
        <time>2020-11-25T14:17:20Z</time>
      </trkpt>
      <trkpt lat="44.90227" lon="1.4578">
        <ele>91.264</ele>
        <time>2020-11-25T14:17:40Z</time>
      </trkpt>
      <trkpt lat="44.90163" lon="1.45933">
        <ele>91.836</ele>
        <time>2020-11-25T14:18:00Z</time>
      </trkpt>
      <trkpt lat="44.90106" lon="1.45966">
        <ele>90.357</ele>
        <time>2020-11-25T14:18:20Z</time>
      </trkpt>
      <trkpt lat="44.90024" lon="1.46101">
        <ele>92.213</ele>
        <time>2020-11-25T14:18:40Z</time>
      </trkpt>
      <trkpt lat="44.89997" lon="1.46184">
        <ele>95.945</ele>
        <time>2020-11-25T14:19:00Z</time>
      </trkpt>
      <trkpt lat="44.9006" lon="1.46214">
        <ele>99.527</ele>
        <time>2020-11-25T14:19:20Z</time>
      </trkpt>
      <trkpt lat="44.90083" lon="1.46354">
        <ele>113.268</ele>
        <time>2020-11-25T14:19:40Z</time>
      </trkpt>
      <trkpt lat="44.89998" lon="1.46371">
        <ele>108.414</ele>
        <time>2020-11-25T14:20:00Z</time>
      </trkpt>
      <trkpt lat="44.89917" lon="1.46411">
        <ele>103.708</ele>
        <time>2020-11-25T14:20:20Z</time>
      </trkpt>
      <trkpt lat="44.89881" lon="1.4645">
        <ele>104.528</ele>
        <time>2020-11-25T14:20:40Z</time>
      </trkpt>
      <trkpt lat="44.89816" lon="1.46582">
        <ele>108.623</ele>
        <time>2020-11-25T14:21:00Z</time>
      </trkpt>
      <trkpt lat="44.89774" lon="1.46845">
        <ele>115.373</ele>
        <time>2020-11-25T14:21:20Z</time>
      </trkpt>
      <trkpt lat="44.89788" lon="1.46891">
        <ele>117.015</ele>
        <time>2020-11-25T14:21:40Z</time>
      </trkpt>
      <trkpt lat="44.8972" lon="1.47039">
        <ele>116.067</ele>
        <time>2020-11-25T14:22:00Z</time>
      </trkpt>
      <trkpt lat="44.89661" lon="1.47123">
        <ele>117.138</ele>
        <time>2020-11-25T14:22:20Z</time>
      </trkpt>
      <trkpt lat="44.89588" lon="1.47312">
        <ele>109.844</ele>
        <time>2020-11-25T14:22:40Z</time>
      </trkpt>
      <trkpt lat="44.89478" lon="1.47511">
        <ele>98.416</ele>
        <time>2020-11-25T14:23:00Z</time>
      </trkpt>
      <trkpt lat="44.89473" lon="1.47561">
        <ele>96.838</ele>
        <time>2020-11-25T14:23:20Z</time>
      </trkpt>
      <trkpt lat="44.89443" lon="1.47605">
        <ele>96.87</ele>
        <time>2020-11-25T14:23:40Z</time>
      </trkpt>
      <trkpt lat="44.89406" lon="1.47592">
        <ele>96.717</ele>
        <time>2020-11-25T14:24:00Z</time>
      </trkpt>
      <trkpt lat="44.89335" lon="1.47618">
        <ele>95.308</ele>
        <time>2020-11-25T14:24:20Z</time>
      </trkpt>
      <trkpt lat="44.89304" lon="1.47654">
        <ele>95.059</ele>
        <time>2020-11-25T14:24:40Z</time>
      </trkpt>
      <trkpt lat="44.89251" lon="1.47603">
        <ele>92.844</ele>
        <time>2020-11-25T14:25:00Z</time>
      </trkpt>
      <trkpt lat="44.89208" lon="1.4758">
        <ele>88.984</ele>
        <time>2020-11-25T14:25:20Z</time>
      </trkpt>
      <trkpt lat="44.89187" lon="1.47512">
        <ele>90.496</ele>
        <time>2020-11-25T14:25:40Z</time>
      </trkpt>
      <trkpt lat="44.89165" lon="1.47384">
        <ele>92.738</ele>
        <time>2020-11-25T14:26:00Z</time>
      </trkpt>
      <trkpt lat="44.89117" lon="1.47223">
        <ele>91.279</ele>
        <time>2020-11-25T14:26:20Z</time>
      </trkpt>
      <trkpt lat="44.89084" lon="1.47231">
        <ele>88.765</ele>
        <time>2020-11-25T14:26:40Z</time>
      </trkpt>
      <trkpt lat="44.88945" lon="1.47185">
        <ele>86.767</ele>
        <time>2020-11-25T14:27:00Z</time>
      </trkpt>
      <trkpt lat="44.88891" lon="1.47328">
        <ele>89.292</ele>
        <time>2015-08-04T13:50:55Z</time>
      </trkpt>
      <trkpt lat="44.88879" lon="1.47494">
        <ele>90.173</ele>
        <time>2015-08-04T13:51:15Z</time>
      </trkpt>
      <trkpt lat="44.88842" lon="1.47756">
        <ele>90.02</ele>
        <time>2015-08-04T13:51:35Z</time>
      </trkpt>
      <trkpt lat="44.88792" lon="1.47924">
        <ele>90.608</ele>
        <time>2015-08-04T13:51:55Z</time>
      </trkpt>
      <trkpt lat="44.88727" lon="1.48097">
        <ele>90.355</ele>
        <time>2015-08-04T13:52:15Z</time>
      </trkpt>
      <trkpt lat="44.88573" lon="1.48371">
        <ele>90.96</ele>
        <time>2015-08-04T13:52:35Z</time>
      </trkpt>
      <trkpt lat="44.88485" lon="1.4848">
        <ele>91.34</ele>
        <time>2015-08-04T13:52:55Z</time>
      </trkpt>
      <trkpt lat="44.88496" lon="1.48519">
        <ele>93.452</ele>
        <time>2015-08-04T13:53:15Z</time>
      </trkpt>
      <trkpt lat="44.88492" lon="1.48552">
        <ele>95.784</ele>
        <time>2015-08-04T13:53:35Z</time>
      </trkpt>
      <trkpt lat="44.88523" lon="1.48516">
        <ele>95.745</ele>
        <time>2015-08-04T13:53:55Z</time>
      </trkpt>
      <trkpt lat="44.88511" lon="1.48581">
        <ele>101.151</ele>
        <time>2015-08-04T13:54:15Z</time>
      </trkpt>
      <trkpt lat="44.88431" lon="1.48623">
        <ele>101.423</ele>
        <time>2015-08-04T13:54:35Z</time>
      </trkpt>
      <trkpt lat="44.88376" lon="1.48669">
        <ele>103.779</ele>
        <time>2015-08-04T13:54:55Z</time>
      </trkpt>
      <trkpt lat="44.88168" lon="1.48891">
        <ele>133.305</ele>
        <time>2015-08-04T13:55:15Z</time>
      </trkpt>
      <trkpt lat="44.88106" lon="1.4897">
        <ele>139.225</ele>
        <time>2015-08-04T13:55:35Z</time>
      </trkpt>
      <trkpt lat="44.88039" lon="1.49029">
        <ele>140.508</ele>
        <time>2015-08-04T13:55:55Z</time>
      </trkpt>
      <trkpt lat="44.88015" lon="1.49084">
        <ele>141.823</ele>
        <time>2015-08-04T13:56:15Z</time>
      </trkpt>
      <trkpt lat="44.87998" lon="1.49102">
        <ele>134.938</ele>
        <time>2015-08-04T13:56:35Z</time>
      </trkpt>
      <trkpt lat="44.8801" lon="1.49144">
        <ele>140.518</ele>
        <time>2015-08-04T13:56:55Z</time>
      </trkpt>
      <trkpt lat="44.8801" lon="1.49221">
        <ele>143.53</ele>
        <time>2015-08-04T13:57:15Z</time>
      </trkpt>
      <trkpt lat="44.88002" lon="1.49263">
        <ele>143.052</ele>
        <time>2015-08-04T13:57:35Z</time>
      </trkpt>
      <trkpt lat="44.87975" lon="1.49338">
        <ele>137.683</ele>
        <time>2015-08-04T13:57:55Z</time>
      </trkpt>
      <trkpt lat="44.87986" lon="1.4944">
        <ele>143.199</ele>
        <time>2015-08-04T13:58:15Z</time>
      </trkpt>
      <trkpt lat="44.87971" lon="1.49496">
        <ele>137.611</ele>
        <time>2015-08-04T13:58:35Z</time>
      </trkpt>
      <trkpt lat="44.87965" lon="1.49576">
        <ele>136.978</ele>
        <time>2015-08-04T13:58:55Z</time>
      </trkpt>
      <trkpt lat="44.87982" lon="1.49659">
        <ele>139.533</ele>
        <time>2015-08-04T13:59:15Z</time>
      </trkpt>
      <trkpt lat="44.88009" lon="1.49736">
        <ele>143.826</ele>
        <time>2015-08-04T13:59:35Z</time>
      </trkpt>
      <trkpt lat="44.87958" lon="1.49733">
        <ele>137.508</ele>
        <time>2020-03-06T18:26:37Z</time>
      </trkpt>
      <trkpt lat="44.87919" lon="1.49645">
        <ele>135.153</ele>
        <time>2020-03-06T18:26:57Z</time>
      </trkpt>
      <trkpt lat="44.87892" lon="1.49611">
        <ele>136.478</ele>
        <time>2020-03-06T18:27:17Z</time>
      </trkpt>
      <trkpt lat="44.87853" lon="1.49619">
        <ele>146.968</ele>
        <time>2020-03-06T18:27:37Z</time>
      </trkpt>
      <trkpt lat="44.87811" lon="1.49673">
        <ele>158.93</ele>
        <time>2020-03-06T18:27:57Z</time>
      </trkpt>
      <trkpt lat="44.87791" lon="1.49526">
        <ele>173.082</ele>
        <time>2015-08-04T14:01:15Z</time>
      </trkpt>
      <trkpt lat="44.87762" lon="1.49602">
        <ele>177.123</ele>
        <time>2015-08-04T14:01:35Z</time>
      </trkpt>
      <trkpt lat="44.87714" lon="1.49658">
        <ele>180.359</ele>
        <time>2015-08-04T14:01:55Z</time>
      </trkpt>
      <trkpt lat="44.87629" lon="1.4977">
        <ele>187.531</ele>
        <time>2015-08-04T14:02:15Z</time>
      </trkpt>
      <trkpt lat="44.8748" lon="1.49865">
        <ele>192.654</ele>
        <time>2015-08-04T14:02:35Z</time>
      </trkpt>
      <trkpt lat="44.87481" lon="1.49939">
        <ele>195.056</ele>
        <time>2015-08-04T14:02:55Z</time>
      </trkpt>
      <trkpt lat="44.87473" lon="1.50011">
        <ele>198.611</ele>
        <time>2015-08-04T14:03:15Z</time>
      </trkpt>
      <trkpt lat="44.87459" lon="1.50063">
        <ele>200.508</ele>
        <time>2015-08-04T14:03:35Z</time>
      </trkpt>
      <trkpt lat="44.87431" lon="1.5009">
        <ele>200.111</ele>
        <time>2015-08-04T14:03:55Z</time>
      </trkpt>
      <trkpt lat="44.87403" lon="1.5008">
        <ele>198.236</ele>
        <time>2015-08-04T14:04:15Z</time>
      </trkpt>
      <trkpt lat="44.87367" lon="1.50091">
        <ele>196.626</ele>
        <time>2015-08-04T14:04:35Z</time>
      </trkpt>
      <trkpt lat="44.87353" lon="1.50148">
        <ele>202.398</ele>
        <time>2015-08-04T14:04:55Z</time>
      </trkpt>
      <trkpt lat="44.87278" lon="1.50182">
        <ele>204.24</ele>
        <time>2015-08-04T14:05:15Z</time>
      </trkpt>
      <trkpt lat="44.87233" lon="1.5022">
        <ele>207.641</ele>
        <time>2015-08-04T14:05:35Z</time>
      </trkpt>
      <trkpt lat="44.87209" lon="1.50255">
        <ele>208.067</ele>
        <time>2015-08-04T14:05:55Z</time>
      </trkpt>
      <trkpt lat="44.87196" lon="1.50293">
        <ele>204.539</ele>
        <time>2015-08-04T14:06:15Z</time>
      </trkpt>
      <trkpt lat="44.87077" lon="1.50364">
        <ele>183.636</ele>
        <time>2015-08-04T14:06:35Z</time>
      </trkpt>
      <trkpt lat="44.87015" lon="1.50323">
        <ele>183.817</ele>
        <time>2015-08-04T14:06:55Z</time>
      </trkpt>
      <trkpt lat="44.86949" lon="1.50316">
        <ele>170.318</ele>
        <time>2015-08-04T14:07:15Z</time>
      </trkpt>
      <trkpt lat="44.86913" lon="1.50327">
        <ele>168.008</ele>
        <time>2015-08-04T14:07:35Z</time>
      </trkpt>
      <trkpt lat="44.86861" lon="1.50373">
        <ele>161.699</ele>
        <time>2015-08-04T14:07:55Z</time>
      </trkpt>
      <trkpt lat="44.8679" lon="1.50414">
        <ele>152.834</ele>
        <time>2015-08-04T14:08:15Z</time>
      </trkpt>
      <trkpt lat="44.86753" lon="1.50432">
        <ele>150.934</ele>
        <time>2015-08-04T14:08:35Z</time>
      </trkpt>
      <trkpt lat="44.86631" lon="1.5037">
        <ele>135.066</ele>
        <time>2020-03-06T18:35:57Z</time>
      </trkpt>
      <trkpt lat="44.866" lon="1.50291">
        <ele>126.598</ele>
        <time>2020-03-06T18:36:17Z</time>
      </trkpt>
      <trkpt lat="44.86582" lon="1.50211">
        <ele>116.959</ele>
        <time>2020-03-06T18:36:37Z</time>
      </trkpt>
      <trkpt lat="44.86586" lon="1.50061">
        <ele>112.045</ele>
        <time>2015-08-04T14:10:15Z</time>
      </trkpt>
      <trkpt lat="44.86594" lon="1.50031">
        <ele>115.2</ele>
      </trkpt>
      <trkpt lat="44.866" lon="1.49859">
        <ele>100</ele>
      </trkpt>
      <trkpt lat="44.86596" lon="1.49796">
        <ele>95.5</ele>
      </trkpt>
      <trkpt lat="44.86587" lon="1.49724">
        <ele>96.6</ele>
      </trkpt>
    </trkseg>
  </trk>
</gpx>